createdAt,value
2018-08-06T00:00:33.857Z,21.39
2018-08-06T00:03:02.923Z,21.18
2018-08-06T00:05:31.261Z,21.23
2018-08-06T00:07:58.827Z,21.17
2018-08-06T00:10:27.144Z,21.12
2018-08-06T00:12:56.087Z,21.14
2018-08-06T00:15:26.159Z,20.92
2018-08-06T00:17:53.709Z,20.86
2018-08-06T00:20:21.385Z,20.85
2018-08-06T00:22:50.064Z,20.78
2018-08-06T00:25:19.519Z,20.73
2018-08-06T00:27:47.857Z,20.67
2018-08-06T00:30:17.373Z,20.85
2018-08-06T00:32:45.724Z,20.70
2018-08-06T00:35:14.050Z,20.61
2018-08-06T00:37:41.958Z,20.54
2018-08-06T00:40:14.143Z,20.53
2018-08-06T00:42:43.913Z,20.42
2018-08-06T00:45:15.008Z,20.40
2018-08-06T00:47:44.048Z,20.47
2018-08-06T00:50:12.391Z,20.30
2018-08-06T00:52:40.325Z,20.23
2018-08-06T00:55:12.489Z,20.18
2018-08-06T00:57:40.787Z,20.27
2018-08-06T01:00:13.098Z,20.26
2018-08-06T01:02:50.385Z,20.28
2018-08-06T01:05:18.739Z,20.28
2018-08-06T01:07:46.488Z,20.28
2018-08-06T01:10:20.295Z,20.19
2018-08-06T01:12:49.232Z,20.11
2018-08-06T01:15:18.139Z,20.09
2018-08-06T01:17:47.014Z,19.96
2018-08-06T01:20:15.595Z,19.87
2018-08-06T01:22:45.067Z,19.85
2018-08-06T01:25:14.112Z,19.72
2018-08-06T01:27:41.892Z,19.74
2018-08-06T01:30:11.988Z,19.65
2018-08-06T01:32:40.518Z,19.85
2018-08-06T01:35:10.517Z,19.71
2018-08-06T01:37:39.374Z,19.58
2018-08-06T01:40:09.753Z,19.68
2018-08-06T01:42:38.209Z,19.56
2018-08-06T01:45:06.807Z,19.66
2018-08-06T01:47:35.111Z,19.60
2018-08-06T01:50:04.187Z,19.56
2018-08-06T01:52:32.532Z,19.55
2018-08-06T01:55:01.549Z,19.53
2018-08-06T01:57:29.401Z,19.55
2018-08-06T01:59:58.111Z,19.57
2018-08-06T02:02:25.678Z,19.63
2018-08-06T02:04:54.161Z,19.49
2018-08-06T02:07:22.038Z,19.50
2018-08-06T02:09:50.755Z,19.39
2018-08-06T02:12:18.983Z,19.51
2018-08-06T02:14:49.028Z,19.39
2018-08-06T02:17:17.396Z,19.32
2018-08-06T02:19:45.987Z,19.39
2018-08-06T02:22:14.292Z,19.29
2018-08-06T02:24:43.010Z,19.17
2018-08-06T02:27:10.582Z,19.12
2018-08-06T02:29:38.323Z,19.17
2018-08-06T02:32:07.183Z,19.20
2018-08-06T02:34:36.278Z,19.03
2018-08-06T02:37:03.987Z,18.95
2018-08-06T02:39:33.192Z,19.08
2018-08-06T02:42:01.007Z,18.98
2018-08-06T02:44:30.109Z,19.05
2018-08-06T02:46:57.598Z,19.05
2018-08-06T02:49:25.679Z,18.99
2018-08-06T02:51:55.110Z,19.11
2018-08-06T02:54:22.633Z,18.97
2018-08-06T02:56:51.797Z,18.99
2018-08-06T02:59:20.677Z,19.01
2018-08-06T03:01:49.321Z,18.96
2018-08-06T03:04:17.200Z,18.92
2018-08-06T03:06:45.642Z,18.86
2018-08-06T03:09:13.964Z,18.84
2018-08-06T03:11:42.029Z,18.92
2018-08-06T03:14:10.557Z,18.87
2018-08-06T03:16:39.493Z,18.82
2018-08-06T03:19:07.441Z,18.70
2018-08-06T03:21:35.114Z,18.74
2018-08-06T03:24:02.880Z,18.88
2018-08-06T03:26:30.817Z,18.88
2018-08-06T03:28:58.715Z,18.63
2018-08-06T03:31:28.735Z,18.50
2018-08-06T03:33:56.792Z,18.47
2018-08-06T03:36:24.332Z,18.54
2018-08-06T03:38:52.465Z,18.44
2018-08-06T03:41:21.508Z,18.41
2018-08-06T03:43:49.972Z,18.35
2018-08-06T03:46:18.299Z,18.37
2018-08-06T03:48:47.745Z,18.33
2018-08-06T03:51:15.690Z,18.29
2018-08-06T03:53:43.765Z,18.26
2018-08-06T03:56:11.945Z,18.28
2018-08-06T03:58:40.808Z,18.27
2018-08-06T04:01:13.970Z,18.33
2018-08-06T04:03:44.181Z,18.50
2018-08-06T04:06:12.214Z,18.48
2018-08-06T04:08:39.838Z,18.44
2018-08-06T04:11:09.888Z,18.40
2018-08-06T04:13:38.766Z,18.53
2018-08-06T04:16:06.791Z,18.57
2018-08-06T04:18:36.725Z,18.65
2018-08-06T04:21:05.715Z,18.62
2018-08-06T04:23:34.435Z,18.62
2018-08-06T04:26:02.064Z,18.37
2018-08-06T04:28:30.934Z,18.63
2018-08-06T04:30:59.338Z,18.67
2018-08-06T04:33:27.821Z,18.79
2018-08-06T04:35:57.635Z,18.93
2018-08-06T04:38:25.382Z,19.18
2018-08-06T04:40:52.863Z,18.97
2018-08-06T04:43:22.745Z,18.96
2018-08-06T04:45:52.630Z,19.05
2018-08-06T04:48:20.183Z,19.00
2018-08-06T04:50:49.274Z,19.01
2018-08-06T04:53:17.558Z,19.18
2018-08-06T04:55:45.095Z,19.27
2018-08-06T04:58:13.705Z,19.19
2018-08-06T05:00:42.171Z,19.40
2018-08-06T05:03:09.874Z,19.54
2018-08-06T05:05:37.383Z,19.55
2018-08-06T05:08:06.193Z,19.58
2018-08-06T05:10:34.916Z,19.84
2018-08-06T05:13:02.431Z,19.81
2018-08-06T05:15:32.041Z,20.00
2018-08-06T05:18:03.829Z,20.02
2018-08-06T05:20:32.452Z,20.11
2018-08-06T05:23:00.775Z,20.20
2018-08-06T05:25:28.449Z,20.21
2018-08-06T05:27:57.056Z,20.25
2018-08-06T05:30:25.189Z,20.49
2018-08-06T05:32:53.029Z,20.30
2018-08-06T05:35:21.040Z,20.27
2018-08-06T05:37:49.712Z,20.30
2018-08-06T05:40:18.772Z,20.39
2018-08-06T05:42:47.386Z,20.45
2018-08-06T05:45:15.934Z,20.45
2018-08-06T05:47:44.465Z,20.59
2018-08-06T05:50:14.237Z,20.73
2018-08-06T05:52:50.244Z,20.70
2018-08-06T05:55:18.901Z,20.72
2018-08-06T05:57:47.406Z,20.65
2018-08-06T06:00:17.714Z,20.66
2018-08-06T06:02:46.761Z,20.65
2018-08-06T06:05:15.379Z,20.83
2018-08-06T06:07:43.383Z,21.08
2018-08-06T06:10:13.424Z,21.10
2018-08-06T06:12:41.403Z,21.19
2018-08-06T06:15:13.252Z,21.45
2018-08-06T06:17:41.714Z,21.55
2018-08-06T06:20:11.250Z,21.68
2018-08-06T06:22:39.919Z,21.86
2018-08-06T06:25:10.873Z,21.98
2018-08-06T06:27:39.599Z,22.37
2018-08-06T06:30:10.191Z,22.43
2018-08-06T06:32:39.445Z,22.13
2018-08-06T06:35:14.104Z,22.44
2018-08-06T06:37:42.431Z,22.55
2018-08-06T06:40:13.164Z,22.86
2018-08-06T06:42:41.997Z,23.42
2018-08-06T06:45:10.925Z,23.38
2018-08-06T06:47:38.745Z,23.31
2018-08-06T06:50:10.088Z,23.09
2018-08-06T06:52:38.526Z,23.50
2018-08-06T06:55:10.460Z,23.54
2018-08-06T06:57:38.784Z,23.45
2018-08-06T07:00:08.651Z,23.43
2018-08-06T07:02:37.008Z,24.09
2018-08-06T07:05:05.449Z,23.79
2018-08-06T07:07:32.952Z,24.34
2018-08-06T07:10:01.325Z,24.65
2018-08-06T07:12:29.744Z,24.92
2018-08-06T07:14:58.391Z,24.99
2018-08-06T07:17:25.856Z,24.84
2018-08-06T07:19:53.515Z,24.60
2018-08-06T07:22:20.874Z,24.72
2018-08-06T07:24:49.882Z,24.80
2018-08-06T07:27:18.745Z,24.77
2018-08-06T07:29:46.702Z,24.82
2018-08-06T07:32:15.034Z,25.06
2018-08-06T07:34:43.799Z,25.02
2018-08-06T07:37:14.340Z,25.32
2018-08-06T07:39:42.624Z,25.47
2018-08-06T07:42:10.841Z,25.80
2018-08-06T07:44:38.656Z,26.09
2018-08-06T07:47:08.227Z,26.25
2018-08-06T07:49:36.505Z,26.10
2018-08-06T07:52:04.252Z,26.05
2018-08-06T07:54:32.122Z,26.67
2018-08-06T07:56:59.623Z,27.07
2018-08-06T07:59:28.168Z,27.29
2018-08-06T08:01:57.467Z,27.01
2018-08-06T08:04:27.300Z,26.73
2018-08-06T08:06:56.765Z,27.47
2018-08-06T08:09:25.673Z,27.67
2018-08-06T08:11:54.009Z,27.56
2018-08-06T08:14:22.269Z,27.22
2018-08-06T08:16:50.022Z,27.50
2018-08-06T08:19:18.627Z,27.92
2018-08-06T08:21:46.181Z,28.23
2018-08-06T08:24:14.631Z,28.45
2018-08-06T08:26:42.181Z,28.01
2018-08-06T08:29:09.685Z,28.63
2018-08-06T08:31:40.133Z,29.22
2018-08-06T08:34:09.669Z,29.21
2018-08-06T08:36:37.099Z,29.38
2018-08-06T08:39:08.004Z,29.41
2018-08-06T08:41:35.673Z,29.45
2018-08-06T08:44:03.421Z,29.99
2018-08-06T08:46:32.123Z,29.84
2018-08-06T08:49:01.225Z,30.15
2018-08-06T08:51:29.345Z,30.37
2018-08-06T08:53:57.539Z,30.33
2018-08-06T08:56:26.734Z,30.68
2018-08-06T08:58:54.672Z,31.32
2018-08-06T09:01:22.052Z,31.52
2018-08-06T09:03:49.796Z,31.90
2018-08-06T09:06:21.208Z,31.49
2018-08-06T09:08:51.086Z,31.52
2018-08-06T09:11:19.503Z,31.65
2018-08-06T09:13:48.191Z,31.96
2018-08-06T09:16:16.547Z,31.80
2018-08-06T09:18:45.681Z,31.93
2018-08-06T09:21:13.469Z,32.11
2018-08-06T09:23:42.183Z,32.40
2018-08-06T09:26:11.703Z,32.78
2018-08-06T09:28:39.487Z,32.99
2018-08-06T09:31:08.366Z,33.13
2018-08-06T09:33:37.508Z,32.98
2018-08-06T09:36:06.608Z,33.28
2018-08-06T09:38:36.199Z,33.55
2018-08-06T09:41:06.517Z,33.69
2018-08-06T09:43:34.882Z,33.21
2018-08-06T09:46:03.282Z,33.49
2018-08-06T09:48:31.400Z,34.75
2018-08-06T09:50:59.478Z,34.00
2018-08-06T09:53:28.563Z,34.32
2018-08-06T09:55:56.634Z,34.54
2018-08-06T09:58:25.952Z,33.91
2018-08-06T10:00:59.174Z,33.68
2018-08-06T10:03:29.359Z,33.00
2018-08-06T10:05:57.889Z,31.70
2018-08-06T10:08:26.445Z,31.50
2018-08-06T10:10:57.215Z,33.38
2018-08-06T10:13:26.047Z,34.30
2018-08-06T10:15:54.224Z,34.75
2018-08-06T10:18:22.670Z,34.87
2018-08-06T10:20:50.181Z,34.89
2018-08-06T10:23:18.172Z,35.30
2018-08-06T10:25:47.110Z,34.44
2018-08-06T10:28:17.905Z,34.64
2018-08-06T10:30:46.726Z,35.82
2018-08-06T10:33:15.644Z,36.27
2018-08-06T10:35:47.332Z,35.26
2018-08-06T10:38:16.611Z,35.46
2018-08-06T10:40:45.093Z,36.05
2018-08-06T10:43:13.295Z,36.05
2018-08-06T10:45:41.742Z,36.92
2018-08-06T10:48:09.725Z,36.38
2018-08-06T10:50:38.243Z,36.36
2018-08-06T10:53:07.819Z,36.42
2018-08-06T10:55:35.862Z,35.17
2018-08-06T10:58:04.532Z,35.98
2018-08-06T11:00:32.191Z,35.78
2018-08-06T11:03:00.435Z,36.89
2018-08-06T11:05:28.849Z,37.26
2018-08-06T11:07:57.710Z,34.40
2018-08-06T11:10:26.058Z,34.41
2018-08-06T11:12:54.803Z,34.53
2018-08-06T11:15:25.186Z,37.41
2018-08-06T11:17:54.546Z,34.56
2018-08-06T11:20:23.638Z,36.53
2018-08-06T11:22:53.024Z,35.37
2018-08-06T11:25:23.138Z,35.81
2018-08-06T11:27:52.161Z,37.06
2018-08-06T11:30:23.390Z,36.98
2018-08-06T11:32:54.387Z,36.14
2018-08-06T11:35:22.413Z,37.97
2018-08-06T11:37:50.209Z,37.17
2018-08-06T11:40:18.588Z,37.83
2018-08-06T11:42:47.081Z,37.52
2018-08-06T11:45:18.257Z,37.61
2018-08-06T11:47:47.218Z,38.24
2018-08-06T11:50:15.466Z,37.79
2018-08-06T11:52:45.094Z,38.86
2018-08-06T11:55:13.239Z,38.53
2018-08-06T11:57:42.754Z,38.52
2018-08-06T12:00:21.736Z,38.74
2018-08-06T12:02:49.363Z,39.08
2018-08-06T12:05:18.089Z,38.63
2018-08-06T12:07:49.307Z,36.75
2018-08-06T12:10:19.435Z,36.70
2018-08-06T12:12:48.251Z,35.28
2018-08-06T12:15:16.626Z,36.47
2018-08-06T12:17:44.876Z,36.77
2018-08-06T12:20:15.267Z,36.44
2018-08-06T12:22:44.094Z,36.84
2018-08-06T12:25:12.784Z,38.14
2018-08-06T12:27:41.645Z,38.12
2018-08-06T12:30:15.165Z,38.42
2018-08-06T12:32:44.773Z,39.20
2018-08-06T12:35:13.387Z,38.50
2018-08-06T12:37:42.550Z,39.87
2018-08-06T12:40:15.538Z,39.28
2018-08-06T12:42:43.851Z,38.60
2018-08-06T12:45:12.922Z,38.23
2018-08-06T12:47:44.731Z,36.94
2018-08-06T12:50:14.694Z,36.51
2018-08-06T12:52:44.807Z,36.83
2018-08-06T12:55:14.682Z,37.37
2018-08-06T12:57:45.440Z,36.78
2018-08-06T13:00:24.439Z,38.11
2018-08-06T13:02:52.760Z,37.34
2018-08-06T13:05:22.858Z,36.61
2018-08-06T13:07:51.689Z,36.91
2018-08-06T13:10:20.671Z,36.14
2018-08-06T13:12:50.280Z,37.04
2018-08-06T13:15:20.225Z,36.53
2018-08-06T13:17:48.261Z,36.54
2018-08-06T13:20:17.137Z,35.12
2018-08-06T13:22:45.944Z,35.95
2018-08-06T13:25:14.184Z,36.15
2018-08-06T13:27:46.191Z,35.78
2018-08-06T13:30:16.450Z,36.75
2018-08-06T13:32:45.376Z,35.85
2018-08-06T13:35:15.020Z,36.56
2018-08-06T13:37:45.150Z,37.31
2018-08-06T13:40:14.025Z,37.08
2018-08-06T13:42:42.128Z,36.61
2018-08-06T13:45:12.175Z,36.24
2018-08-06T13:47:41.672Z,36.51
2018-08-06T13:50:10.950Z,35.87
2018-08-06T13:52:40.172Z,38.57
2018-08-06T13:55:10.325Z,36.24
2018-08-06T13:57:38.987Z,36.39
2018-08-06T14:00:14.429Z,37.85
2018-08-06T14:02:42.816Z,38.27
2018-08-06T14:05:15.288Z,38.70
2018-08-06T14:07:44.007Z,39.28
2018-08-06T14:10:12.293Z,39.77
2018-08-06T14:12:40.381Z,38.41
2018-08-06T14:15:10.450Z,38.99
2018-08-06T14:17:38.932Z,37.61
2018-08-06T14:20:07.425Z,36.79
2018-08-06T14:22:36.163Z,38.83
2018-08-06T14:25:05.343Z,39.53
2018-08-06T14:27:33.242Z,39.31
2018-08-06T14:30:03.171Z,38.36
2018-08-06T14:32:31.315Z,39.61
2018-08-06T14:35:00.493Z,36.74
2018-08-06T14:37:29.686Z,35.60
2018-08-06T14:39:58.425Z,37.25
2018-08-06T14:42:27.256Z,36.03
2018-08-06T14:44:55.367Z,36.15
2018-08-06T14:47:24.856Z,35.35
2018-08-06T14:49:53.233Z,36.00
2018-08-06T14:52:22.556Z,35.76
2018-08-06T14:54:50.839Z,34.37
2018-08-06T14:57:18.743Z,34.34
2018-08-06T14:59:47.102Z,35.27
2018-08-06T15:02:14.719Z,36.45
2018-08-06T15:04:42.399Z,37.42
2018-08-06T15:07:11.095Z,35.69
2018-08-06T15:09:39.028Z,35.72
2018-08-06T15:12:07.602Z,35.23
2018-08-06T15:14:35.874Z,36.16
2018-08-06T15:17:04.022Z,37.42
2018-08-06T15:19:31.779Z,36.55
2018-08-06T15:22:00.061Z,36.71
2018-08-06T15:24:29.050Z,35.53
2018-08-06T15:26:58.456Z,35.53
2018-08-06T15:29:27.242Z,35.25
2018-08-06T15:31:57.227Z,36.40
2018-08-06T15:34:26.010Z,36.87
2018-08-06T15:36:54.924Z,35.03
2018-08-06T15:39:23.412Z,35.32
2018-08-06T15:41:52.676Z,35.62
2018-08-06T15:44:21.136Z,35.68
2018-08-06T15:46:49.141Z,36.27
2018-08-06T15:49:16.828Z,35.47
2018-08-06T15:51:44.738Z,35.96
2018-08-06T15:54:12.514Z,35.26
2018-08-06T15:56:42.203Z,35.12
2018-08-06T15:59:11.185Z,35.61
2018-08-06T16:01:40.794Z,35.15
2018-08-06T16:04:10.384Z,34.07
2018-08-06T16:06:39.432Z,35.25
2018-08-06T16:09:09.785Z,35.14
2018-08-06T16:11:37.844Z,35.27
2018-08-06T16:14:07.357Z,35.55
2018-08-06T16:16:36.757Z,34.71
2018-08-06T16:19:05.272Z,34.40
2018-08-06T16:21:33.834Z,34.23
2018-08-06T16:24:02.301Z,34.88
2018-08-06T16:26:39.736Z,34.60
2018-08-06T16:29:07.384Z,33.82
2018-08-06T16:31:35.975Z,33.94
2018-08-06T16:34:04.408Z,33.60
2018-08-06T16:36:32.810Z,33.77
2018-08-06T16:39:02.057Z,33.50
2018-08-06T16:41:30.421Z,33.27
2018-08-06T16:43:59.657Z,33.60
2018-08-06T16:46:28.097Z,33.68
2018-08-06T16:48:55.582Z,33.62
2018-08-06T16:51:23.517Z,33.56
2018-08-06T16:53:52.200Z,33.50
2018-08-06T16:56:20.593Z,33.71
2018-08-06T16:58:53.279Z,33.92
2018-08-06T17:01:22.331Z,33.29
2018-08-06T17:03:50.448Z,33.12
2018-08-06T17:06:20.223Z,32.79
2018-08-06T17:08:48.265Z,32.94
2018-08-06T17:11:17.067Z,32.34
2018-08-06T17:13:45.733Z,32.60
2018-08-06T17:16:14.899Z,33.03
2018-08-06T17:18:42.894Z,32.92
2018-08-06T17:21:10.922Z,32.77
2018-08-06T17:23:39.455Z,32.36
2018-08-06T17:26:07.282Z,32.19
2018-08-06T17:28:35.893Z,32.27
2018-08-06T17:31:04.453Z,32.28
2018-08-06T17:33:32.164Z,32.00
2018-08-06T17:36:00.869Z,31.86
2018-08-06T17:38:28.998Z,31.80
2018-08-06T17:40:59.645Z,31.66
2018-08-06T17:43:28.078Z,31.71
2018-08-06T17:45:57.098Z,31.72
2018-08-06T17:48:25.500Z,31.64
2018-08-06T17:50:53.237Z,31.38
2018-08-06T17:53:21.458Z,31.26
2018-08-06T17:55:51.147Z,31.16
2018-08-06T17:58:19.780Z,31.08
2018-08-06T18:00:47.832Z,30.95
2018-08-06T18:03:15.177Z,30.87
2018-08-06T18:05:43.915Z,30.80
2018-08-06T18:08:11.484Z,30.62
2018-08-06T18:10:40.462Z,30.63
2018-08-06T18:13:08.180Z,30.56
2018-08-06T18:15:39.011Z,30.47
2018-08-06T18:18:07.334Z,30.43
2018-08-06T18:20:40.811Z,30.28
2018-08-06T18:23:10.174Z,30.12
2018-08-06T18:25:38.761Z,29.97
2018-08-06T18:28:07.663Z,29.93
2018-08-06T18:30:35.361Z,29.87
2018-08-06T18:33:05.341Z,29.85
2018-08-06T18:35:34.999Z,29.79
2018-08-06T18:38:03.400Z,29.62
2018-08-06T18:40:31.852Z,29.48
2018-08-06T18:43:00.196Z,29.47
2018-08-06T18:45:28.480Z,29.41
2018-08-06T18:47:57.249Z,29.16
2018-08-06T18:50:24.737Z,29.07
2018-08-06T18:52:52.514Z,28.94
2018-08-06T18:55:21.128Z,28.94
2018-08-06T18:57:49.976Z,28.71
2018-08-06T19:00:21.418Z,28.67
2018-08-06T19:02:49.920Z,28.53
2018-08-06T19:05:19.013Z,28.45
2018-08-06T19:07:46.407Z,28.34
2018-08-06T19:10:14.025Z,28.30
2018-08-06T19:12:47.151Z,28.12
2018-08-06T19:15:15.696Z,27.80
2018-08-06T19:17:49.683Z,27.73
2018-08-06T19:20:17.329Z,27.62
2018-08-06T19:22:45.366Z,27.61
2018-08-06T19:25:20.686Z,27.40
2018-08-06T19:27:48.691Z,27.40
2018-08-06T19:30:17.470Z,27.31
2018-08-06T19:32:46.532Z,27.36
2018-08-06T19:35:14.346Z,27.22
2018-08-06T19:37:48.292Z,27.30
2018-08-06T19:40:16.812Z,27.18
2018-08-06T19:42:52.078Z,27.13
2018-08-06T19:45:20.574Z,26.76
2018-08-06T19:47:48.772Z,26.67
2018-08-06T19:50:23.569Z,26.66
2018-08-06T19:52:53.963Z,26.70
2018-08-06T19:55:28.165Z,26.74
2018-08-06T19:57:57.032Z,26.88
2018-08-06T20:00:24.475Z,26.65
2018-08-06T20:02:52.019Z,26.60
2018-08-06T20:05:19.677Z,26.59
2018-08-06T20:07:49.429Z,26.51
2018-08-06T20:10:17.503Z,26.51
2018-08-06T20:12:45.434Z,26.35
2018-08-06T20:15:15.556Z,26.29
2018-08-06T20:17:44.758Z,26.20
2018-08-06T20:20:14.221Z,25.99
2018-08-06T20:22:43.043Z,26.02
2018-08-06T20:25:16.083Z,25.91
2018-08-06T20:27:44.533Z,25.80
2018-08-06T20:30:14.217Z,25.63
2018-08-06T20:32:42.415Z,25.50
2018-08-06T20:35:13.748Z,25.46
2018-08-06T20:37:43.492Z,25.48
2018-08-06T20:40:12.262Z,25.34
2018-08-06T20:42:41.877Z,25.23
2018-08-06T20:45:13.867Z,25.15
2018-08-06T20:47:42.226Z,24.96
2018-08-06T20:50:12.003Z,25.08
2018-08-06T20:52:40.340Z,24.78
2018-08-06T20:55:10.529Z,24.85
2018-08-06T20:57:38.553Z,24.78
2018-08-06T21:00:08.563Z,24.75
2018-08-06T21:02:37.389Z,24.66
2018-08-06T21:05:07.178Z,24.57
2018-08-06T21:07:35.306Z,24.40
2018-08-06T21:10:04.321Z,24.31
2018-08-06T21:12:32.795Z,24.26
2018-08-06T21:15:02.031Z,24.25
2018-08-06T21:17:31.167Z,24.03
2018-08-06T21:20:02.181Z,24.02
2018-08-06T21:22:31.623Z,24.11
2018-08-06T21:24:59.997Z,24.13
2018-08-06T21:27:30.002Z,24.07
2018-08-06T21:29:59.460Z,24.02
2018-08-06T21:32:27.061Z,23.74
2018-08-06T21:34:54.590Z,23.72
2018-08-06T21:37:23.496Z,23.55
2018-08-06T21:39:51.834Z,23.41
2018-08-06T21:42:20.233Z,23.35
2018-08-06T21:44:48.199Z,23.35
2018-08-06T21:47:16.116Z,23.31
2018-08-06T21:49:43.478Z,23.53
2018-08-06T21:52:11.463Z,23.60
2018-08-06T21:54:39.758Z,23.40
2018-08-06T21:57:08.199Z,23.30
2018-08-06T21:59:39.314Z,23.26
2018-08-06T22:02:11.320Z,23.31
2018-08-06T22:04:39.486Z,23.36
2018-08-06T22:07:08.043Z,23.30
2018-08-06T22:09:37.074Z,23.31
2018-08-06T22:12:05.266Z,23.37
2018-08-06T22:14:33.276Z,23.33
2018-08-06T22:17:08.248Z,23.33
2018-08-06T22:19:37.180Z,23.25
2018-08-06T22:22:04.796Z,23.20
2018-08-06T22:24:33.096Z,23.09
2018-08-06T22:27:00.490Z,23.08
2018-08-06T22:29:29.454Z,22.91
2018-08-06T22:32:00.325Z,22.96
2018-08-06T22:34:28.463Z,23.04
2018-08-06T22:36:56.022Z,23.05
2018-08-06T22:39:23.455Z,23.08
2018-08-06T22:41:51.040Z,23.07
2018-08-06T22:44:19.490Z,22.99
2018-08-06T22:46:49.039Z,22.88
2018-08-06T22:49:17.090Z,22.83
2018-08-06T22:51:45.984Z,22.67
2018-08-06T22:54:15.714Z,22.57
2018-08-06T22:56:44.952Z,22.61
2018-08-06T22:59:15.524Z,22.48
2018-08-06T23:01:43.449Z,22.44
2018-08-06T23:04:11.266Z,22.46
2018-08-06T23:06:41.630Z,22.57
2018-08-06T23:09:12.465Z,22.48
2018-08-06T23:11:41.775Z,22.15
2018-08-06T23:14:10.859Z,22.08
2018-08-06T23:16:39.635Z,22.16
2018-08-06T23:19:07.570Z,22.05
2018-08-06T23:21:36.100Z,22.06
2018-08-06T23:24:06.187Z,21.93
2018-08-06T23:26:33.906Z,21.98
2018-08-06T23:29:01.513Z,21.96
2018-08-06T23:31:30.209Z,21.90
2018-08-06T23:33:58.051Z,21.82
2018-08-06T23:36:27.026Z,21.76
2018-08-06T23:38:55.679Z,21.70
2018-08-06T23:41:24.291Z,21.80
2018-08-06T23:43:53.621Z,21.76
2018-08-06T23:46:22.432Z,21.86
2018-08-06T23:48:51.363Z,21.68
2018-08-06T23:51:18.951Z,21.72
2018-08-06T23:53:47.241Z,21.60
2018-08-06T23:56:14.893Z,21.60
2018-08-06T23:58:42.473Z,21.50
